createdAt,value
2022-08-11T00:00:12.489Z,1017.94
2022-08-11T00:01:12.460Z,1017.92
2022-08-11T00:02:15.054Z,1017.93
2022-08-11T00:03:12.492Z,1017.93
2022-08-11T00:04:12.409Z,1017.92
2022-08-11T00:05:12.392Z,1017.94
2022-08-11T00:06:12.372Z,1017.93
2022-08-11T00:07:12.356Z,1017.94
2022-08-11T00:08:12.339Z,1017.97
2022-08-11T00:09:12.321Z,1017.92
2022-08-11T00:10:12.303Z,1017.93
2022-08-11T00:11:12.287Z,1017.97
2022-08-11T00:12:12.267Z,1017.98
2022-08-11T00:13:13.297Z,1017.98
2022-08-11T00:14:12.231Z,1017.96
2022-08-11T00:15:12.224Z,1017.93
2022-08-11T00:16:12.196Z,1017.94
2022-08-11T00:17:12.184Z,1017.91
2022-08-11T00:18:12.163Z,1017.91
2022-08-11T00:19:12.146Z,1017.90
2022-08-11T00:20:16.211Z,1017.94
2022-08-11T00:21:12.109Z,1017.90
2022-08-11T00:22:12.091Z,1017.91
2022-08-11T00:23:12.074Z,1017.89
2022-08-11T00:24:12.056Z,1017.90
2022-08-11T00:25:12.154Z,1017.91
2022-08-11T00:26:12.021Z,1017.90
2022-08-11T00:27:14.310Z,1017.88
2022-08-11T00:28:11.989Z,1017.89
2022-08-11T00:29:11.972Z,1017.87
2022-08-11T00:30:11.955Z,1017.89
2022-08-11T00:31:11.933Z,1017.88
2022-08-11T00:32:11.914Z,1017.87
2022-08-11T00:33:11.895Z,1017.88
2022-08-11T00:34:11.879Z,1017.89
2022-08-11T00:35:53.645Z,1017.90
2022-08-11T00:36:11.843Z,1017.87
2022-08-11T00:37:11.825Z,1017.89
2022-08-11T00:38:11.807Z,1017.89
2022-08-11T00:39:11.842Z,1017.88
2022-08-11T00:40:11.771Z,1017.91
2022-08-11T00:41:11.756Z,1017.89
2022-08-11T00:42:11.737Z,1017.87
2022-08-11T00:43:11.722Z,1017.90
2022-08-11T00:44:11.700Z,1017.91
2022-08-11T00:45:11.683Z,1017.90
2022-08-11T00:46:11.673Z,1017.90
2022-08-11T00:47:11.649Z,1017.95
2022-08-11T00:48:11.630Z,1017.90
2022-08-11T00:49:12.028Z,1017.95
2022-08-11T00:50:11.622Z,1017.94
2022-08-11T00:51:11.598Z,1017.95
2022-08-11T00:52:11.559Z,1017.95
2022-08-11T00:53:11.541Z,1017.91
2022-08-11T00:54:11.523Z,1017.93
2022-08-11T00:55:11.505Z,1017.92
2022-08-11T00:56:11.488Z,1017.94
2022-08-11T00:57:36.914Z,1017.93
2022-08-11T00:58:11.450Z,1017.93
2022-08-11T00:59:21.111Z,1017.92
2022-08-11T01:00:11.416Z,1017.90
2022-08-11T01:01:11.580Z,1017.92
2022-08-11T01:02:11.380Z,1017.93
2022-08-11T01:03:11.363Z,1017.91
2022-08-11T01:04:11.345Z,1017.95
2022-08-11T01:05:11.327Z,1017.92
2022-08-11T01:06:11.309Z,1017.94
2022-08-11T01:07:11.293Z,1017.94
2022-08-11T01:08:11.272Z,1017.92
2022-08-11T01:09:22.526Z,1017.91
2022-08-11T01:10:11.236Z,1017.92
2022-08-11T01:11:11.219Z,1017.92
2022-08-11T01:12:11.202Z,1017.91
2022-08-11T01:13:11.183Z,1017.92
2022-08-11T01:14:11.166Z,1017.88
2022-08-11T01:15:11.147Z,1017.88
2022-08-11T01:16:11.128Z,1017.94
2022-08-11T01:17:11.112Z,1017.90
2022-08-11T01:18:11.098Z,1017.89
2022-08-11T01:19:11.079Z,1017.89
2022-08-11T01:20:46.775Z,1017.90
2022-08-11T01:21:11.038Z,1017.88
2022-08-11T01:22:11.025Z,1017.91
2022-08-11T01:23:12.512Z,1017.93
2022-08-11T01:24:10.997Z,1017.90
2022-08-11T01:25:10.969Z,1017.94
2022-08-11T01:26:10.951Z,1017.92
2022-08-11T01:27:19.193Z,1017.89
2022-08-11T01:28:10.914Z,1017.94
2022-08-11T01:29:10.894Z,1017.93
2022-08-11T01:30:10.879Z,1017.94
2022-08-11T01:31:10.873Z,1017.90
2022-08-11T01:32:10.847Z,1017.92
2022-08-11T01:33:10.828Z,1017.92
2022-08-11T01:34:10.807Z,1017.88
2022-08-11T01:35:10.788Z,1017.92
2022-08-11T01:36:10.768Z,1017.87
2022-08-11T01:37:10.752Z,1017.91
2022-08-11T01:38:10.731Z,1017.86
2022-08-11T01:39:10.772Z,1017.86
2022-08-11T01:40:10.700Z,1017.85
2022-08-11T01:41:10.693Z,1017.90
2022-08-11T01:42:10.659Z,1017.91
2022-08-11T01:43:10.642Z,1017.88
2022-08-11T01:44:12.668Z,1017.87
2022-08-11T01:45:10.613Z,1017.89
2022-08-11T01:46:10.587Z,1017.87
2022-08-11T01:47:10.571Z,1017.86
2022-08-11T01:48:10.549Z,1017.90
2022-08-11T01:50:06.693Z,1017.85
2022-08-11T01:50:10.846Z,1017.87
2022-08-11T01:51:16.956Z,1017.88
2022-08-11T01:52:10.478Z,1017.87
2022-08-11T01:53:10.461Z,1017.86
2022-08-11T01:54:10.443Z,1017.89
2022-08-11T01:55:10.424Z,1017.90
2022-08-11T01:56:10.404Z,1017.90
2022-08-11T01:57:10.395Z,1017.91
2022-08-11T01:58:10.368Z,1017.90
2022-08-11T01:59:10.351Z,1017.91
2022-08-11T02:00:10.331Z,1017.91
2022-08-11T02:01:10.371Z,1017.91
2022-08-11T02:02:10.298Z,1017.94
2022-08-11T02:03:10.278Z,1017.95
2022-08-11T02:04:10.263Z,1017.92
2022-08-11T02:05:10.242Z,1017.91
2022-08-11T02:06:10.222Z,1017.95
2022-08-11T02:07:10.214Z,1017.98
2022-08-11T02:08:10.193Z,1017.98
2022-08-11T02:09:10.168Z,1017.96
2022-08-11T02:10:10.151Z,1017.94
2022-08-11T02:11:10.133Z,1017.97
2022-08-11T02:12:10.117Z,1017.94
2022-08-11T02:13:10.093Z,1017.94
2022-08-11T02:14:10.076Z,1017.92
2022-08-11T02:15:10.057Z,1017.90
2022-08-11T02:16:10.036Z,1017.90
2022-08-11T02:17:10.020Z,1017.90
2022-08-11T02:18:09.999Z,1017.87
2022-08-11T02:19:09.986Z,1017.91
2022-08-11T02:20:09.966Z,1017.93
2022-08-11T02:21:09.945Z,1017.91
2022-08-11T02:22:09.929Z,1017.94
2022-08-11T02:23:09.909Z,1017.93
2022-08-11T02:24:09.890Z,1017.95
2022-08-11T02:25:09.874Z,1017.97
2022-08-11T02:26:09.853Z,1017.97
2022-08-11T02:27:09.835Z,1017.99
2022-08-11T02:28:09.815Z,1017.97
2022-08-11T02:29:09.797Z,1018.02
2022-08-11T02:30:09.783Z,1018.01
2022-08-11T02:31:09.762Z,1018.01
2022-08-11T02:32:25.126Z,1018.00
2022-08-11T02:33:09.722Z,1017.99
2022-08-11T02:34:09.706Z,1017.99
2022-08-11T02:35:09.687Z,1018.01
2022-08-11T02:36:09.667Z,1017.98
2022-08-11T02:37:09.649Z,1017.98
2022-08-11T02:38:09.631Z,1017.96
2022-08-11T02:39:09.685Z,1017.96
2022-08-11T02:40:09.594Z,1017.97
2022-08-11T02:41:09.574Z,1017.98
2022-08-11T02:42:32.604Z,1017.96
2022-08-11T02:43:09.540Z,1017.94
2022-08-11T02:44:09.521Z,1017.96
2022-08-11T02:45:09.500Z,1017.93
2022-08-11T02:46:09.481Z,1017.94
2022-08-11T02:47:09.461Z,1017.95
2022-08-11T02:48:09.441Z,1017.96
2022-08-11T02:49:09.423Z,1017.93
2022-08-11T02:50:09.404Z,1017.92
2022-08-11T02:51:09.390Z,1017.98
2022-08-11T02:52:09.369Z,1017.97
2022-08-11T02:53:09.353Z,1017.97
2022-08-11T02:54:09.329Z,1017.99
2022-08-11T02:55:09.312Z,1017.97
2022-08-11T02:56:09.289Z,1017.95
2022-08-11T02:57:11.251Z,1017.94
2022-08-11T02:58:09.253Z,1017.98
2022-08-11T02:59:09.237Z,1017.95
2022-08-11T03:00:09.219Z,1017.92
2022-08-11T03:01:09.198Z,1017.96
2022-08-11T03:02:09.226Z,1017.97
2022-08-11T03:03:09.161Z,1017.98
2022-08-11T03:04:09.140Z,1018.01
2022-08-11T03:05:09.130Z,1017.99
2022-08-11T03:06:09.111Z,1017.99
2022-08-11T03:07:28.831Z,1017.97
2022-08-11T03:08:09.057Z,1017.98
2022-08-11T03:09:09.046Z,1018.00
2022-08-11T03:10:09.025Z,1017.99
2022-08-11T03:11:09.009Z,1017.99
2022-08-11T03:12:08.992Z,1017.97
2022-08-11T03:13:08.970Z,1017.96
2022-08-11T03:14:08.951Z,1017.96
2022-08-11T03:15:08.935Z,1017.95
2022-08-11T03:16:08.918Z,1017.98
2022-08-11T03:17:08.896Z,1017.99
2022-08-11T03:18:08.883Z,1018.01
2022-08-11T03:19:08.858Z,1017.98
2022-08-11T03:20:08.840Z,1018.02
2022-08-11T03:21:08.819Z,1018.00
2022-08-11T03:22:08.800Z,1018.03
2022-08-11T03:23:19.978Z,1018.03
2022-08-11T03:24:08.763Z,1018.01
2022-08-11T03:25:12.759Z,1018.01
2022-08-11T03:26:08.727Z,1017.99
2022-08-11T03:27:08.705Z,1017.99
2022-08-11T03:28:08.686Z,1018.00
2022-08-11T03:29:08.667Z,1017.98
2022-08-11T03:30:08.648Z,1017.99
2022-08-11T03:31:08.632Z,1017.99
2022-08-11T03:32:08.614Z,1018.00
2022-08-11T03:33:08.592Z,1017.99
2022-08-11T03:34:08.572Z,1017.98
2022-08-11T03:35:08.556Z,1018.03
2022-08-11T03:36:08.539Z,1018.04
2022-08-11T03:37:17.550Z,1018.01
2022-08-11T03:38:08.497Z,1017.99
2022-08-11T03:39:08.540Z,1018.02
2022-08-11T03:40:08.507Z,1018.01
2022-08-11T03:42:01.203Z,1018.01
2022-08-11T03:42:10.258Z,1018.00
2022-08-11T03:43:08.405Z,1017.99
2022-08-11T03:44:08.382Z,1018.00
2022-08-11T03:45:08.364Z,1018.00
2022-08-11T03:46:08.347Z,1018.01
2022-08-11T03:47:08.328Z,1017.98
2022-08-11T03:48:08.315Z,1017.99
2022-08-11T03:49:08.288Z,1017.94
2022-08-11T03:50:08.277Z,1017.97
2022-08-11T03:51:08.250Z,1017.97
2022-08-11T03:52:08.231Z,1017.93
2022-08-11T03:53:08.216Z,1017.93
2022-08-11T03:54:08.191Z,1017.92
2022-08-11T03:55:08.178Z,1017.91
2022-08-11T03:56:08.155Z,1017.89
2022-08-11T03:57:08.135Z,1017.91
2022-08-11T03:58:08.116Z,1017.93
2022-08-11T03:59:08.097Z,1017.93
2022-08-11T04:00:08.079Z,1017.95
2022-08-11T04:01:08.223Z,1017.95
2022-08-11T04:02:08.039Z,1017.96
2022-08-11T04:03:08.023Z,1017.99
2022-08-11T04:04:08.006Z,1017.99
2022-08-11T04:05:07.986Z,1017.98
2022-08-11T04:06:07.964Z,1017.96
2022-08-11T04:07:07.951Z,1017.98
2022-08-11T04:08:07.927Z,1017.95
2022-08-11T04:09:07.909Z,1017.93
2022-08-11T04:10:07.892Z,1017.93
2022-08-11T04:11:07.881Z,1017.90
2022-08-11T04:12:07.854Z,1017.86
2022-08-11T04:13:07.834Z,1017.85
2022-08-11T04:14:07.815Z,1017.84
2022-08-11T04:15:07.794Z,1017.84
2022-08-11T04:16:11.312Z,1017.85
2022-08-11T04:17:07.761Z,1017.84
2022-08-11T04:18:07.740Z,1017.85
2022-08-11T04:19:07.720Z,1017.88
2022-08-11T04:20:07.701Z,1017.84
2022-08-11T04:21:07.681Z,1017.85
2022-08-11T04:22:07.661Z,1017.90
2022-08-11T04:23:07.642Z,1017.89
2022-08-11T04:24:36.903Z,1017.89
2022-08-11T04:25:07.607Z,1017.89
2022-08-11T04:26:16.203Z,1017.90
2022-08-11T04:27:08.200Z,1017.88
2022-08-11T04:28:07.551Z,1017.89
2022-08-11T04:29:09.496Z,1017.88
2022-08-11T04:30:08.923Z,1017.86
2022-08-11T04:31:07.490Z,1017.86
2022-08-11T04:32:07.473Z,1017.84
2022-08-11T04:33:07.453Z,1017.85
2022-08-11T04:34:07.435Z,1017.83
2022-08-11T04:35:07.414Z,1017.85
2022-08-11T04:36:07.398Z,1017.86
2022-08-11T04:37:07.376Z,1017.82
2022-08-11T04:38:07.358Z,1017.85
2022-08-11T04:39:07.360Z,1017.87
2022-08-11T04:40:07.327Z,1017.84
2022-08-11T04:41:07.309Z,1017.88
2022-08-11T04:42:07.283Z,1017.85
2022-08-11T04:43:07.265Z,1017.87
2022-08-11T04:44:07.249Z,1017.88
2022-08-11T04:45:07.226Z,1017.88
2022-08-11T04:46:07.209Z,1017.86
2022-08-11T04:47:07.187Z,1017.85
2022-08-11T04:48:07.170Z,1017.89
2022-08-11T04:49:07.154Z,1017.86
2022-08-11T04:50:07.131Z,1017.87
2022-08-11T04:51:16.328Z,1017.88
2022-08-11T04:52:07.092Z,1017.89
2022-08-11T04:53:07.070Z,1017.92
2022-08-11T04:54:07.055Z,1017.93
2022-08-11T04:55:07.034Z,1017.93
2022-08-11T04:56:07.020Z,1017.92
2022-08-11T04:57:06.999Z,1017.92
2022-08-11T04:58:06.979Z,1017.95
2022-08-11T04:59:06.963Z,1017.91
2022-08-11T05:00:06.940Z,1017.92
2022-08-11T05:01:06.996Z,1017.94
2022-08-11T05:02:06.950Z,1017.91
2022-08-11T05:03:06.884Z,1017.90
2022-08-11T05:04:06.864Z,1017.92
2022-08-11T05:05:06.843Z,1017.88
2022-08-11T05:06:06.826Z,1017.89
2022-08-11T05:07:06.811Z,1017.89
2022-08-11T05:08:06.790Z,1017.87
2022-08-11T05:09:06.768Z,1017.86
2022-08-11T05:10:06.751Z,1017.87
2022-08-11T05:11:06.743Z,1017.91
2022-08-11T05:12:06.712Z,1017.90
2022-08-11T05:13:06.701Z,1017.92
2022-08-11T05:14:06.675Z,1017.90
2022-08-11T05:15:06.653Z,1017.91
2022-08-11T05:16:06.637Z,1017.91
2022-08-11T05:17:06.617Z,1017.93
2022-08-11T05:18:06.598Z,1017.89
2022-08-11T05:19:06.577Z,1017.95
2022-08-11T05:20:06.562Z,1017.94
2022-08-11T05:21:06.541Z,1017.92
2022-08-11T05:22:06.525Z,1017.92
2022-08-11T05:23:06.503Z,1017.93
2022-08-11T05:24:06.491Z,1017.90
2022-08-11T05:25:06.463Z,1017.90
2022-08-11T05:26:43.828Z,1017.90
2022-08-11T05:27:11.369Z,1017.94
2022-08-11T05:28:06.407Z,1017.93
2022-08-11T05:29:20.006Z,1017.95
2022-08-11T05:30:06.374Z,1017.96
2022-08-11T05:31:06.354Z,1017.95
2022-08-11T05:32:06.336Z,1017.98
2022-08-11T05:33:06.319Z,1017.98
2022-08-11T05:34:06.296Z,1017.99
2022-08-11T05:35:06.275Z,1018.00
2022-08-11T05:36:06.258Z,1018.02
2022-08-11T05:37:25.821Z,1018.03
2022-08-11T05:38:06.224Z,1018.00
2022-08-11T05:39:06.199Z,1017.98
2022-08-11T05:40:06.281Z,1017.98
2022-08-11T05:41:06.160Z,1017.98
2022-08-11T05:42:06.152Z,1017.99
2022-08-11T05:43:06.185Z,1017.97
2022-08-11T05:44:21.113Z,1017.96
2022-08-11T05:45:15.209Z,1017.97
2022-08-11T05:46:09.028Z,1017.96
2022-08-11T05:47:06.049Z,1017.96
2022-08-11T05:48:06.036Z,1017.97
2022-08-11T05:49:06.015Z,1017.94
2022-08-11T05:50:05.994Z,1017.96
2022-08-11T05:51:10.366Z,1017.98
2022-08-11T05:52:12.822Z,1018.01
2022-08-11T05:53:09.345Z,1018.00
2022-08-11T05:54:05.919Z,1017.97
2022-08-11T05:55:06.979Z,1018.02
2022-08-11T05:56:05.881Z,1017.98
2022-08-11T05:57:05.865Z,1017.98
2022-08-11T05:58:05.843Z,1018.02
2022-08-11T05:59:05.822Z,1018.02
2022-08-11T06:00:05.809Z,1018.01
2022-08-11T06:01:05.811Z,1018.04
2022-08-11T06:02:05.910Z,1018.06
2022-08-11T06:03:05.748Z,1018.07
2022-08-11T06:04:05.732Z,1018.05
2022-08-11T06:05:05.712Z,1018.07
2022-08-11T06:06:05.699Z,1018.04
2022-08-11T06:07:05.680Z,1018.04
2022-08-11T06:08:05.661Z,1018.06
2022-08-11T06:09:05.635Z,1018.02
2022-08-11T06:10:05.619Z,1018.03
2022-08-11T06:11:05.601Z,1018.05
2022-08-11T06:12:05.594Z,1018.05
2022-08-11T06:13:05.561Z,1018.08
2022-08-11T06:14:05.545Z,1018.06
2022-08-11T06:15:05.528Z,1018.04
2022-08-11T06:16:07.114Z,1018.01
2022-08-11T06:17:05.490Z,1018.03
2022-08-11T06:18:05.473Z,1017.98
2022-08-11T06:19:05.450Z,1017.98
2022-08-11T06:20:07.176Z,1017.94
2022-08-11T06:21:05.414Z,1017.95
2022-08-11T06:22:05.421Z,1017.95
2022-08-11T06:23:05.383Z,1017.95
2022-08-11T06:24:05.377Z,1017.97
2022-08-11T06:25:05.347Z,1017.98
2022-08-11T06:26:05.339Z,1018.00
2022-08-11T06:27:13.728Z,1017.95
2022-08-11T06:28:05.288Z,1017.98
2022-08-11T06:29:05.264Z,1017.94
2022-08-11T06:30:05.247Z,1017.97
2022-08-11T06:31:05.226Z,1017.98
2022-08-11T06:32:05.215Z,1017.97
2022-08-11T06:33:05.210Z,1017.98
2022-08-11T06:34:05.174Z,1018.03
2022-08-11T06:35:05.153Z,1018.00
2022-08-11T06:36:05.138Z,1018.02
2022-08-11T06:37:05.144Z,1018.01
2022-08-11T06:38:05.101Z,1018.02
2022-08-11T06:39:05.081Z,1018.03
2022-08-11T06:40:05.063Z,1018.02
2022-08-11T06:41:05.044Z,1018.02
2022-08-11T06:42:05.028Z,1018.02
2022-08-11T06:43:05.007Z,1018.05
2022-08-11T06:44:05.600Z,1018.03
2022-08-11T06:45:04.981Z,1018.04
2022-08-11T06:46:04.954Z,1018.05
2022-08-11T06:47:04.934Z,1018.04
2022-08-11T06:48:04.917Z,1018.05
2022-08-11T06:49:04.897Z,1018.06
2022-08-11T06:50:04.884Z,1018.04
2022-08-11T06:51:04.863Z,1018.07
2022-08-11T06:52:04.924Z,1018.01
2022-08-11T06:53:04.827Z,1018.03
2022-08-11T06:54:05.807Z,1018.03
2022-08-11T06:55:04.788Z,1018.05
2022-08-11T06:56:04.774Z,1018.04
2022-08-11T06:58:04.785Z,1018.04
2022-08-11T06:59:04.713Z,1018.04
2022-08-11T07:00:04.706Z,1018.02
2022-08-11T07:01:04.765Z,1018.01
2022-08-11T07:02:04.670Z,1018.03
2022-08-11T07:03:04.640Z,1018.03
2022-08-11T07:04:04.624Z,1017.99
2022-08-11T07:05:04.620Z,1018.03
2022-08-11T07:06:04.589Z,1018.01
2022-08-11T07:07:04.569Z,1018.00
2022-08-11T07:08:34.273Z,1018.01
2022-08-11T07:09:04.530Z,1017.98
2022-08-11T07:10:04.523Z,1017.98
2022-08-11T07:11:04.493Z,1017.99
2022-08-11T07:12:04.482Z,1017.96
2022-08-11T07:13:04.469Z,1017.97
2022-08-11T07:14:04.447Z,1017.93
2022-08-11T07:15:04.423Z,1017.99
2022-08-11T07:16:11.386Z,1017.99
2022-08-11T07:17:04.386Z,1017.96
2022-08-11T07:18:04.373Z,1017.97
2022-08-11T07:19:04.351Z,1017.95
2022-08-11T07:20:04.334Z,1017.95
2022-08-11T07:21:04.315Z,1017.96
2022-08-11T07:22:04.402Z,1017.97
2022-08-11T07:23:04.283Z,1018.00
2022-08-11T07:24:04.261Z,1017.99
2022-08-11T07:25:04.250Z,1018.00
2022-08-11T07:26:04.231Z,1018.00
2022-08-11T07:27:04.209Z,1018.00
2022-08-11T07:28:04.196Z,1018.02
2022-08-11T07:29:04.172Z,1018.06
2022-08-11T07:30:04.154Z,1018.04
2022-08-11T07:31:04.137Z,1017.99
2022-08-11T07:32:04.118Z,1018.00
2022-08-11T07:33:04.103Z,1018.03
2022-08-11T07:34:06.463Z,1018.00
2022-08-11T07:35:04.063Z,1018.01
2022-08-11T07:36:04.049Z,1017.98
2022-08-11T07:37:04.035Z,1018.01
2022-08-11T07:38:05.662Z,1018.00
2022-08-11T07:39:03.993Z,1018.00
2022-08-11T07:40:03.986Z,1018.01
2022-08-11T07:41:03.956Z,1017.98
2022-08-11T07:42:03.940Z,1018.01
2022-08-11T07:43:03.926Z,1018.03
2022-08-11T07:44:03.909Z,1018.10
2022-08-11T07:45:03.887Z,1018.08
2022-08-11T07:46:03.869Z,1018.09
2022-08-11T07:47:03.853Z,1018.06
2022-08-11T07:48:03.836Z,1018.08
2022-08-11T07:49:03.865Z,1018.10
2022-08-11T07:50:03.802Z,1018.03
2022-08-11T07:51:03.791Z,1018.04
2022-08-11T07:52:03.765Z,1018.09
2022-08-11T07:53:03.749Z,1018.03
2022-08-11T07:54:07.731Z,1018.04
2022-08-11T07:55:03.713Z,1018.07
2022-08-11T07:56:03.698Z,1018.05
2022-08-11T07:57:09.120Z,1018.01
2022-08-11T07:58:16.663Z,1018.03
2022-08-11T07:59:08.248Z,1018.00
2022-08-11T08:00:05.074Z,1017.99
2022-08-11T08:01:03.709Z,1018.01
2022-08-11T08:02:03.734Z,1017.97
2022-08-11T08:03:03.575Z,1017.97
2022-08-11T08:04:03.562Z,1017.98
2022-08-11T08:05:03.542Z,1017.99
2022-08-11T08:06:03.527Z,1018.04
2022-08-11T08:07:03.514Z,1017.99
2022-08-11T08:08:03.498Z,1017.96
2022-08-11T08:09:03.475Z,1018.00
2022-08-11T08:10:03.466Z,1018.03
2022-08-11T08:11:03.454Z,1018.02
2022-08-11T08:12:03.433Z,1018.05
2022-08-11T08:13:03.409Z,1018.02
2022-08-11T08:14:03.402Z,1018.03
2022-08-11T08:15:03.376Z,1018.03
2022-08-11T08:16:03.372Z,1018.02
2022-08-11T08:17:03.352Z,1018.03
2022-08-11T08:18:20.921Z,1018.03
2022-08-11T08:19:03.309Z,1018.03
2022-08-11T08:20:03.295Z,1018.06
2022-08-11T08:21:03.281Z,1018.07
2022-08-11T08:22:37.433Z,1018.05
2022-08-11T08:23:03.243Z,1018.04
2022-08-11T08:24:03.229Z,1018.03
2022-08-11T08:25:03.215Z,1018.07
2022-08-11T08:26:03.200Z,1018.08
2022-08-11T08:27:03.187Z,1018.11
2022-08-11T08:28:03.165Z,1018.07
2022-08-11T08:29:03.151Z,1018.08
2022-08-11T08:30:03.130Z,1018.06
2022-08-11T08:31:03.114Z,1018.06
2022-08-11T08:32:03.099Z,1018.06
2022-08-11T08:33:03.082Z,1018.05
2022-08-11T08:34:03.068Z,1018.04
2022-08-11T08:35:03.051Z,1018.04
2022-08-11T08:36:03.036Z,1018.05
2022-08-11T08:37:03.021Z,1018.07
2022-08-11T08:38:03.002Z,1018.07
2022-08-11T08:39:02.990Z,1018.09
2022-08-11T08:40:02.975Z,1018.09
2022-08-11T08:41:02.956Z,1018.09
2022-08-11T08:42:02.939Z,1018.07
2022-08-11T08:43:02.924Z,1018.05
2022-08-11T08:44:27.817Z,1018.04
2022-08-11T08:45:02.916Z,1018.02
2022-08-11T08:46:02.875Z,1018.00
2022-08-11T08:47:02.861Z,1018.02
2022-08-11T08:48:02.846Z,1017.98
2022-08-11T08:49:02.829Z,1018.00
2022-08-11T08:50:02.814Z,1017.98
2022-08-11T08:51:02.801Z,1017.97
2022-08-11T08:52:29.655Z,1018.01
2022-08-11T08:53:02.766Z,1018.01
2022-08-11T08:54:02.749Z,1018.02
2022-08-11T08:55:02.736Z,1018.02
2022-08-11T08:56:02.720Z,1017.99
2022-08-11T08:57:02.705Z,1018.00
2022-08-11T08:58:02.688Z,1018.01
2022-08-11T08:59:02.675Z,1018.01
2022-08-11T09:00:02.658Z,1018.04
2022-08-11T09:01:02.675Z,1018.00
2022-08-11T09:02:02.627Z,1018.00
2022-08-11T09:03:17.199Z,1017.99
2022-08-11T09:04:10.567Z,1017.98
2022-08-11T09:05:02.590Z,1017.99
2022-08-11T09:06:02.566Z,1018.03
2022-08-11T09:07:02.556Z,1018.03
2022-08-11T09:08:02.539Z,1018.01
2022-08-11T09:09:02.523Z,1018.05
2022-08-11T09:10:02.505Z,1018.06
2022-08-11T09:11:02.492Z,1018.02
2022-08-11T09:12:02.475Z,1018.01
2022-08-11T09:13:02.461Z,1018.03
2022-08-11T09:14:03.295Z,1018.04
2022-08-11T09:15:02.438Z,1018.03
2022-08-11T09:16:02.418Z,1018.06
2022-08-11T09:17:02.403Z,1018.02
2022-08-11T09:18:02.388Z,1018.01
2022-08-11T09:19:02.373Z,1018.01
2022-08-11T09:20:02.447Z,1018.01
2022-08-11T09:21:02.342Z,1017.98
2022-08-11T09:22:02.328Z,1018.00
2022-08-11T09:24:06.738Z,1017.96
2022-08-11T09:25:02.283Z,1017.96
2022-08-11T09:26:02.271Z,1017.94
2022-08-11T09:27:02.253Z,1017.92
2022-08-11T09:28:02.239Z,1017.94
2022-08-11T09:29:02.223Z,1017.92
2022-08-11T09:30:02.208Z,1017.95
2022-08-11T09:31:02.208Z,1017.93
2022-08-11T09:32:02.186Z,1017.92
2022-08-11T09:33:02.169Z,1017.94
2022-08-11T09:34:02.149Z,1017.95
2022-08-11T09:35:02.137Z,1017.94
2022-08-11T09:36:02.122Z,1017.93
2022-08-11T09:37:02.107Z,1017.93
2022-08-11T09:38:02.680Z,1017.90
2022-08-11T09:39:02.079Z,1017.83
2022-08-11T09:40:02.076Z,1017.84
2022-08-11T09:41:02.048Z,1017.87
2022-08-11T09:42:03.498Z,1017.83
2022-08-11T09:43:02.021Z,1017.90
2022-08-11T09:44:04.157Z,1017.83
2022-08-11T09:45:02.101Z,1017.82
2022-08-11T09:46:01.980Z,1017.79
2022-08-11T09:47:01.966Z,1017.80
2022-08-11T09:48:01.951Z,1017.83
2022-08-11T09:49:01.937Z,1017.84
2022-08-11T09:50:02.157Z,1017.84
2022-08-11T09:51:01.907Z,1017.84
2022-08-11T09:52:05.144Z,1017.79
2022-08-11T09:53:34.775Z,1017.80
2022-08-11T09:54:03.520Z,1017.79
2022-08-11T09:55:01.852Z,1017.80
2022-08-11T09:56:01.836Z,1017.78
2022-08-11T09:57:05.186Z,1017.76
2022-08-11T09:58:01.805Z,1017.75
2022-08-11T09:59:01.806Z,1017.78
2022-08-11T10:00:12.648Z,1017.72
2022-08-11T10:01:01.856Z,1017.74
2022-08-11T10:02:01.751Z,1017.72
2022-08-11T10:03:01.740Z,1017.74
2022-08-11T10:04:01.721Z,1017.71
2022-08-11T10:05:01.713Z,1017.74
2022-08-11T10:06:07.307Z,1017.71
2022-08-11T10:07:01.683Z,1017.69
2022-08-11T10:08:01.669Z,1017.70
2022-08-11T10:09:01.659Z,1017.71
2022-08-11T10:10:01.640Z,1017.67
2022-08-11T10:11:01.627Z,1017.68
2022-08-11T10:12:01.609Z,1017.67
2022-08-11T10:13:01.610Z,1017.67
2022-08-11T10:14:33.922Z,1017.64
2022-08-11T10:15:01.568Z,1017.64
2022-08-11T10:16:16.309Z,1017.67
2022-08-11T10:17:01.540Z,1017.69
2022-08-11T10:18:01.529Z,1017.69
2022-08-11T10:19:01.515Z,1017.62
2022-08-11T10:20:04.782Z,1017.64
2022-08-11T10:21:01.487Z,1017.68
2022-08-11T10:22:01.468Z,1017.66
2022-08-11T10:23:01.459Z,1017.63
2022-08-11T10:24:05.746Z,1017.64
2022-08-11T10:25:01.430Z,1017.62
2022-08-11T10:26:01.416Z,1017.62
2022-08-11T10:27:01.406Z,1017.60
2022-08-11T10:28:28.517Z,1017.58
2022-08-11T10:29:12.552Z,1017.58
2022-08-11T10:30:01.365Z,1017.56
2022-08-11T10:31:01.350Z,1017.55
2022-08-11T10:32:02.076Z,1017.45
2022-08-11T10:33:01.320Z,1017.51
2022-08-11T10:34:01.632Z,1017.51
2022-08-11T10:35:01.303Z,1017.51
2022-08-11T10:36:01.282Z,1017.54
2022-08-11T10:37:01.265Z,1017.51
2022-08-11T10:38:08.587Z,1017.49
2022-08-11T10:39:01.236Z,1017.48
2022-08-11T10:40:01.220Z,1017.45
2022-08-11T10:41:01.210Z,1017.44
2022-08-11T10:42:06.111Z,1017.44
2022-08-11T10:43:01.492Z,1017.43
2022-08-11T10:44:03.697Z,1017.38
2022-08-11T10:45:01.158Z,1017.41
2022-08-11T10:46:01.141Z,1017.41
2022-08-11T10:47:01.126Z,1017.37
2022-08-11T10:48:01.113Z,1017.38
2022-08-11T10:49:01.105Z,1017.38
2022-08-11T10:50:01.089Z,1017.41
2022-08-11T10:51:01.075Z,1017.33
2022-08-11T10:52:01.067Z,1017.41
2022-08-11T10:53:01.046Z,1017.41
2022-08-11T10:54:01.034Z,1017.38
2022-08-11T10:55:01.022Z,1017.39
2022-08-11T10:56:01.030Z,1017.36
2022-08-11T10:57:00.989Z,1017.36
2022-08-11T10:58:04.313Z,1017.34
2022-08-11T10:59:03.990Z,1017.26
2022-08-11T11:00:00.950Z,1017.27
2022-08-11T11:01:00.982Z,1017.26
2022-08-11T11:02:00.926Z,1017.25
2022-08-11T11:03:16.846Z,1017.23
2022-08-11T11:04:00.907Z,1017.25
2022-08-11T11:05:00.883Z,1017.27
2022-08-11T11:06:27.849Z,1017.27
2022-08-11T11:07:00.855Z,1017.24
2022-08-11T11:08:00.844Z,1017.25
2022-08-11T11:09:04.069Z,1017.26
2022-08-11T11:10:00.814Z,1017.28
2022-08-11T11:11:00.801Z,1017.29
2022-08-11T11:12:00.795Z,1017.28
2022-08-11T11:13:00.784Z,1017.28
2022-08-11T11:14:00.766Z,1017.26
2022-08-11T11:15:00.747Z,1017.26
2022-08-11T11:16:00.737Z,1017.25
2022-08-11T11:17:00.724Z,1017.22
2022-08-11T11:18:00.709Z,1017.18
2022-08-11T11:19:01.453Z,1017.18
2022-08-11T11:20:00.682Z,1017.17
2022-08-11T11:21:00.677Z,1017.20
2022-08-11T11:22:00.654Z,1017.21
2022-08-11T11:23:00.646Z,1017.19
2022-08-11T11:24:00.630Z,1017.20
2022-08-11T11:25:00.627Z,1017.18
2022-08-11T11:26:00.606Z,1017.21
2022-08-11T11:27:00.591Z,1017.18
2022-08-11T11:28:00.586Z,1017.19
2022-08-11T11:29:00.568Z,1017.22
2022-08-11T11:30:00.553Z,1017.20
2022-08-11T11:31:00.546Z,1017.11
2022-08-11T11:32:00.526Z,1017.17
2022-08-11T11:33:00.521Z,1017.12
2022-08-11T11:34:12.383Z,1017.07
2022-08-11T11:35:00.488Z,1017.06
2022-08-11T11:36:00.477Z,1017.07
2022-08-11T11:37:00.468Z,1017.09
2022-08-11T11:38:04.031Z,1017.09
2022-08-11T11:39:00.436Z,1017.06
2022-08-11T11:40:00.428Z,1017.08
2022-08-11T11:41:00.412Z,1017.06
2022-08-11T11:42:00.398Z,1017.03
2022-08-11T11:43:00.406Z,1017.01
2022-08-11T11:44:01.494Z,1017.03
2022-08-11T11:45:01.439Z,1017.06
2022-08-11T11:46:00.355Z,1016.97
2022-08-11T11:47:00.338Z,1017.03
2022-08-11T11:48:00.322Z,1017.03
2022-08-11T11:49:00.310Z,1017.01
2022-08-11T11:50:00.300Z,1017.07
2022-08-11T11:51:00.295Z,1017.02
2022-08-11T11:52:00.276Z,1016.97
2022-08-11T11:53:00.264Z,1017.02
2022-08-11T11:54:00.250Z,1017.01
2022-08-11T11:55:00.247Z,1016.97
2022-08-11T11:56:00.227Z,1016.98
2022-08-11T11:57:00.216Z,1016.94
2022-08-11T11:58:02.624Z,1016.91
2022-08-11T11:59:00.194Z,1016.89
2022-08-11T12:00:00.207Z,1016.88
2022-08-11T12:01:00.170Z,1016.90
2022-08-11T12:02:00.156Z,1016.87
2022-08-11T12:03:00.238Z,1016.88
2022-08-11T12:04:00.136Z,1016.83
2022-08-11T12:05:00.121Z,1016.75
2022-08-11T12:06:00.108Z,1016.77
2022-08-11T12:07:00.099Z,1016.76